sensor_id;sensor_type;location;lat;lon;timestamp;temperature;humidity
75652;HTU21D;64248;43.602;39.724;2022-10-18T00:01:08;17.05;74.03
75652;HTU21D;64248;43.602;39.724;2022-10-18T00:03:35;17.02;74.12
75652;HTU21D;64248;43.602;39.724;2022-10-18T00:06:03;17.01;74.12
75652;HTU21D;64248;43.602;39.724;2022-10-18T00:08:29;16.96;74.18
75652;HTU21D;64248;43.602;39.724;2022-10-18T00:10:55;16.95;74.22
75652;HTU21D;64248;43.602;39.724;2022-10-18T00:13:22;16.95;74.26
75652;HTU21D;64248;43.602;39.724;2022-10-18T00:15:50;16.94;74.35
75652;HTU21D;64248;43.602;39.724;2022-10-18T00:18:17;16.94;74.35
75652;HTU21D;64248;43.602;39.724;2022-10-18T00:20:43;16.93;74.36
75652;HTU21D;64248;43.602;39.724;2022-10-18T00:23:09;16.93;74.38
75652;HTU21D;64248;43.602;39.724;2022-10-18T00:25:35;16.93;74.34
75652;HTU21D;64248;43.602;39.724;2022-10-18T00:28:01;16.90;74.36
75652;HTU21D;64248;43.602;39.724;2022-10-18T00:30:27;16.90;74.39
75652;HTU21D;64248;43.602;39.724;2022-10-18T00:32:53;16.89;74.41
75652;HTU21D;64248;43.602;39.724;2022-10-18T00:35:19;16.86;74.42
75652;HTU21D;64248;43.602;39.724;2022-10-18T00:37:45;16.86;74.45
75652;HTU21D;64248;43.602;39.724;2022-10-18T00:40:11;16.86;74.52
75652;HTU21D;64248;43.602;39.724;2022-10-18T00:42:37;16.84;74.48
75652;HTU21D;64248;43.602;39.724;2022-10-18T00:47:33;16.80;74.56
75652;HTU21D;64248;43.602;39.724;2022-10-18T00:50:02;16.80;74.51
75652;HTU21D;64248;43.602;39.724;2022-10-18T00:52:35;16.79;74.57
75652;HTU21D;64248;43.602;39.724;2022-10-18T00:55:03;16.79;74.57
75652;HTU21D;64248;43.602;39.724;2022-10-18T00:57:31;16.78;74.57
75652;HTU21D;64248;43.602;39.724;2022-10-18T00:59:58;16.75;74.55
75652;HTU21D;64248;43.602;39.724;2022-10-18T01:02:24;16.75;74.55
75652;HTU21D;64248;43.602;39.724;2022-10-18T01:04:50;16.74;74.59
75652;HTU21D;64248;43.602;39.724;2022-10-18T01:07:29;16.73;74.55
75652;HTU21D;64248;43.602;39.724;2022-10-18T01:15:26;16.69;74.57
75652;HTU21D;64248;43.602;39.724;2022-10-18T01:32:42;16.57;74.68
75652;HTU21D;64248;43.602;39.724;2022-10-18T01:35:19;16.57;74.70
75652;HTU21D;64248;43.602;39.724;2022-10-18T01:37:48;16.56;74.82
75652;HTU21D;64248;43.602;39.724;2022-10-18T01:40:18;16.56;74.93
75652;HTU21D;64248;43.602;39.724;2022-10-18T01:42:46;16.58;74.94
75652;HTU21D;64248;43.602;39.724;2022-10-18T01:45:14;16.58;74.95
75652;HTU21D;64248;43.602;39.724;2022-10-18T01:47:45;16.59;74.89
75652;HTU21D;64248;43.602;39.724;2022-10-18T01:50:11;16.57;74.73
75652;HTU21D;64248;43.602;39.724;2022-10-18T01:52:50;16.56;74.70
75652;HTU21D;64248;43.602;39.724;2022-10-18T01:55:17;16.54;74.76
75652;HTU21D;64248;43.602;39.724;2022-10-18T02:00:38;16.52;74.73
75652;HTU21D;64248;43.602;39.724;2022-10-18T02:03:22;16.51;74.70
75652;HTU21D;64248;43.602;39.724;2022-10-18T02:08:45;16.50;74.86
75652;HTU21D;64248;43.602;39.724;2022-10-18T02:11:15;16.51;74.83
75652;HTU21D;64248;43.602;39.724;2022-10-18T02:14:05;16.50;74.78
75652;HTU21D;64248;43.602;39.724;2022-10-18T02:19:30;16.46;74.72
75652;HTU21D;64248;43.602;39.724;2022-10-18T02:21:57;16.43;74.78
75652;HTU21D;64248;43.602;39.724;2022-10-18T02:24:30;16.42;74.81
75652;HTU21D;64248;43.602;39.724;2022-10-18T02:26:58;16.41;74.83
75652;HTU21D;64248;43.602;39.724;2022-10-18T02:29:24;16.40;74.86
75652;HTU21D;64248;43.602;39.724;2022-10-18T02:31:55;16.41;74.82
75652;HTU21D;64248;43.602;39.724;2022-10-18T02:34:31;16.40;74.83
75652;HTU21D;64248;43.602;39.724;2022-10-18T02:37:01;16.36;74.82
75652;HTU21D;64248;43.602;39.724;2022-10-18T02:39:33;16.35;74.91
75652;HTU21D;64248;43.602;39.724;2022-10-18T02:41:59;16.33;74.94
75652;HTU21D;64248;43.602;39.724;2022-10-18T02:44:25;16.31;74.91
75652;HTU21D;64248;43.602;39.724;2022-10-18T02:46:52;16.29;74.99
75652;HTU21D;64248;43.602;39.724;2022-10-18T02:49:18;16.29;74.98
75652;HTU21D;64248;43.602;39.724;2022-10-18T02:51:44;16.27;75.02
75652;HTU21D;64248;43.602;39.724;2022-10-18T02:54:10;16.27;75.05
75652;HTU21D;64248;43.602;39.724;2022-10-18T02:56:36;16.26;75.03
75652;HTU21D;64248;43.602;39.724;2022-10-18T02:59:02;16.27;75.02
75652;HTU21D;64248;43.602;39.724;2022-10-18T03:01:29;16.27;75.03
75652;HTU21D;64248;43.602;39.724;2022-10-18T03:03:57;16.27;75.01
75652;HTU21D;64248;43.602;39.724;2022-10-18T03:06:23;16.28;75.04
75652;HTU21D;64248;43.602;39.724;2022-10-18T03:08:49;16.27;75.06
75652;HTU21D;64248;43.602;39.724;2022-10-18T03:11:15;16.27;75.09
75652;HTU21D;64248;43.602;39.724;2022-10-18T03:13:41;16.28;75.09
75652;HTU21D;64248;43.602;39.724;2022-10-18T03:16:07;16.26;75.12
75652;HTU21D;64248;43.602;39.724;2022-10-18T03:18:33;16.25;75.09
75652;HTU21D;64248;43.602;39.724;2022-10-18T03:21:03;16.24;75.12
75652;HTU21D;64248;43.602;39.724;2022-10-18T03:23:30;16.24;75.15
75652;HTU21D;64248;43.602;39.724;2022-10-18T03:25:56;16.22;75.16
75652;HTU21D;64248;43.602;39.724;2022-10-18T03:28:22;16.24;75.17
75652;HTU21D;64248;43.602;39.724;2022-10-18T03:30:47;16.24;75.13
75652;HTU21D;64248;43.602;39.724;2022-10-18T03:33:13;16.24;75.11
75652;HTU21D;64248;43.602;39.724;2022-10-18T03:35:39;16.22;75.11
75652;HTU21D;64248;43.602;39.724;2022-10-18T03:38:05;16.22;75.12
75652;HTU21D;64248;43.602;39.724;2022-10-18T03:40:31;16.22;75.12
75652;HTU21D;64248;43.602;39.724;2022-10-18T03:42:57;16.19;75.08
75652;HTU21D;64248;43.602;39.724;2022-10-18T03:45:24;16.18;75.15
75652;HTU21D;64248;43.602;39.724;2022-10-18T03:47:50;16.16;75.12
75652;HTU21D;64248;43.602;39.724;2022-10-18T03:50:16;16.14;75.15
75652;HTU21D;64248;43.602;39.724;2022-10-18T03:52:42;16.13;75.16
75652;HTU21D;64248;43.602;39.724;2022-10-18T03:55:08;16.12;75.21
75652;HTU21D;64248;43.602;39.724;2022-10-18T03:57:35;16.11;75.23
75652;HTU21D;64248;43.602;39.724;2022-10-18T04:00:01;16.11;75.31
75652;HTU21D;64248;43.602;39.724;2022-10-18T04:02:26;16.11;75.31
75652;HTU21D;64248;43.602;39.724;2022-10-18T04:04:52;16.11;75.34
75652;HTU21D;64248;43.602;39.724;2022-10-18T04:07:18;16.11;75.39
75652;HTU21D;64248;43.602;39.724;2022-10-18T04:09:44;16.12;75.45
75652;HTU21D;64248;43.602;39.724;2022-10-18T04:12:10;16.12;75.45
75652;HTU21D;64248;43.602;39.724;2022-10-18T04:14:36;16.12;75.44
75652;HTU21D;64248;43.602;39.724;2022-10-18T04:17:02;16.14;75.49
75652;HTU21D;64248;43.602;39.724;2022-10-18T04:19:29;16.16;75.48
75652;HTU21D;64248;43.602;39.724;2022-10-18T04:21:55;16.16;75.51
75652;HTU21D;64248;43.602;39.724;2022-10-18T04:24:21;16.17;75.52
75652;HTU21D;64248;43.602;39.724;2022-10-18T04:26:47;16.18;75.52
75652;HTU21D;64248;43.602;39.724;2022-10-18T04:29:13;16.21;75.51
75652;HTU21D;64248;43.602;39.724;2022-10-18T04:31:39;16.24;75.48
75652;HTU21D;64248;43.602;39.724;2022-10-18T04:34:04;16.26;75.47
75652;HTU21D;64248;43.602;39.724;2022-10-18T04:36:30;16.29;75.44
75652;HTU21D;64248;43.602;39.724;2022-10-18T04:38:56;16.31;75.44
75652;HTU21D;64248;43.602;39.724;2022-10-18T04:41:22;16.32;75.48
75652;HTU21D;64248;43.602;39.724;2022-10-18T04:43:48;16.35;75.42
75652;HTU21D;64248;43.602;39.724;2022-10-18T04:46:14;16.39;75.34
75652;HTU21D;64248;43.602;39.724;2022-10-18T04:48:40;16.41;75.44
75652;HTU21D;64248;43.602;39.724;2022-10-18T04:51:06;16.43;75.53
75652;HTU21D;64248;43.602;39.724;2022-10-18T04:53:32;16.46;75.45
75652;HTU21D;64248;43.602;39.724;2022-10-18T04:55:58;16.48;75.37
75652;HTU21D;64248;43.602;39.724;2022-10-18T04:58:24;16.50;75.34
75652;HTU21D;64248;43.602;39.724;2022-10-18T05:00:51;16.52;75.28
75652;HTU21D;64248;43.602;39.724;2022-10-18T05:03:17;16.55;75.30
75652;HTU21D;64248;43.602;39.724;2022-10-18T05:05:43;16.57;75.30
75652;HTU21D;64248;43.602;39.724;2022-10-18T05:08:11;16.59;75.24
75652;HTU21D;64248;43.602;39.724;2022-10-18T05:10:37;16.64;75.17
75652;HTU21D;64248;43.602;39.724;2022-10-18T05:13:03;16.65;75.21
75652;HTU21D;64248;43.602;39.724;2022-10-18T05:15:29;16.69;75.14
75652;HTU21D;64248;43.602;39.724;2022-10-18T05:17:55;16.72;75.17
75652;HTU21D;64248;43.602;39.724;2022-10-18T05:20:21;16.76;75.20
75652;HTU21D;64248;43.602;39.724;2022-10-18T05:22:47;16.81;75.15
75652;HTU21D;64248;43.602;39.724;2022-10-18T05:25:13;16.87;75.17
75652;HTU21D;64248;43.602;39.724;2022-10-18T05:27:39;16.91;75.15
75652;HTU21D;64248;43.602;39.724;2022-10-18T05:30:05;16.95;75.18
75652;HTU21D;64248;43.602;39.724;2022-10-18T05:32:31;17.02;75.21
75652;HTU21D;64248;43.602;39.724;2022-10-18T05:35:01;17.07;75.14
75652;HTU21D;64248;43.602;39.724;2022-10-18T05:37:27;17.11;75.05
75652;HTU21D;64248;43.602;39.724;2022-10-18T05:39:53;17.16;75.05
75652;HTU21D;64248;43.602;39.724;2022-10-18T05:42:19;17.21;74.99
75652;HTU21D;64248;43.602;39.724;2022-10-18T05:44:45;17.24;74.86
75652;HTU21D;64248;43.602;39.724;2022-10-18T05:47:11;17.30;74.83
75652;HTU21D;64248;43.602;39.724;2022-10-18T05:49:37;17.34;74.72
75652;HTU21D;64248;43.602;39.724;2022-10-18T05:52:03;17.39;74.61
75652;HTU21D;64248;43.602;39.724;2022-10-18T05:54:29;17.46;74.56
75652;HTU21D;64248;43.602;39.724;2022-10-18T05:56:55;17.50;74.44
75652;HTU21D;64248;43.602;39.724;2022-10-18T05:59:21;17.54;74.42
75652;HTU21D;64248;43.602;39.724;2022-10-18T06:01:47;17.60;74.34
75652;HTU21D;64248;43.602;39.724;2022-10-18T06:04:13;17.65;74.24
75652;HTU21D;64248;43.602;39.724;2022-10-18T06:06:39;17.70;74.13
75652;HTU21D;64248;43.602;39.724;2022-10-18T06:09:06;17.77;74.02
75652;HTU21D;64248;43.602;39.724;2022-10-18T06:11:32;17.82;73.91
75652;HTU21D;64248;43.602;39.724;2022-10-18T06:13:59;17.88;73.87
75652;HTU21D;64248;43.602;39.724;2022-10-18T06:16:26;17.94;73.80
75652;HTU21D;64248;43.602;39.724;2022-10-18T06:18:54;18.00;73.68
75652;HTU21D;64248;43.602;39.724;2022-10-18T06:21:21;18.07;73.54
75652;HTU21D;64248;43.602;39.724;2022-10-18T06:23:52;18.12;73.48
75652;HTU21D;64248;43.602;39.724;2022-10-18T06:26:18;18.19;73.40
75652;HTU21D;64248;43.602;39.724;2022-10-18T06:28:44;18.26;73.38
75652;HTU21D;64248;43.602;39.724;2022-10-18T06:31:11;18.33;73.28
75652;HTU21D;64248;43.602;39.724;2022-10-18T06:33:38;18.39;73.19
75652;HTU21D;64248;43.602;39.724;2022-10-18T06:36:10;18.48;73.08
75652;HTU21D;64248;43.602;39.724;2022-10-18T06:38:36;18.57;74.20
75652;HTU21D;64248;43.602;39.724;2022-10-18T06:41:03;18.81;74.95
75652;HTU21D;64248;43.602;39.724;2022-10-18T06:43:29;19.18;75.97
75652;HTU21D;64248;43.602;39.724;2022-10-18T06:45:55;19.60;75.60
75652;HTU21D;64248;43.602;39.724;2022-10-18T06:48:22;19.96;75.11
75652;HTU21D;64248;43.602;39.724;2022-10-18T06:50:56;20.28;74.84
75652;HTU21D;64248;43.602;39.724;2022-10-18T06:53:27;20.51;74.33
75652;HTU21D;64248;43.602;39.724;2022-10-18T06:56:04;20.71;73.99
75652;HTU21D;64248;43.602;39.724;2022-10-18T06:58:31;20.83;73.74
75652;HTU21D;64248;43.602;39.724;2022-10-18T07:00:57;20.94;73.58
75652;HTU21D;64248;43.602;39.724;2022-10-18T07:03:23;21.04;73.15
75652;HTU21D;64248;43.602;39.724;2022-10-18T07:05:50;21.10;73.03
75652;HTU21D;64248;43.602;39.724;2022-10-18T07:08:17;21.15;73.05
75652;HTU21D;64248;43.602;39.724;2022-10-18T07:10:50;21.19;73.01
75652;HTU21D;64248;43.602;39.724;2022-10-18T07:13:17;21.22;72.94
75652;HTU21D;64248;43.602;39.724;2022-10-18T07:15:43;21.29;72.83
75652;HTU21D;64248;43.602;39.724;2022-10-18T07:18:10;21.34;72.77
75652;HTU21D;64248;43.602;39.724;2022-10-18T07:20:36;21.40;73.06
75652;HTU21D;64248;43.602;39.724;2022-10-18T07:23:02;21.52;72.94
75652;HTU21D;64248;43.602;39.724;2022-10-18T07:25:28;21.65;72.52
75652;HTU21D;64248;43.602;39.724;2022-10-18T07:27:55;21.73;72.13
75652;HTU21D;64248;43.602;39.724;2022-10-18T07:30:21;21.77;71.96
75652;HTU21D;64248;43.602;39.724;2022-10-18T07:32:50;21.81;71.64
75652;HTU21D;64248;43.602;39.724;2022-10-18T07:35:16;21.80;71.55
75652;HTU21D;64248;43.602;39.724;2022-10-18T07:37:42;21.80;71.45
75652;HTU21D;64248;43.602;39.724;2022-10-18T07:40:09;21.82;71.39
75652;HTU21D;64248;43.602;39.724;2022-10-18T07:42:37;21.82;71.36
75652;HTU21D;64248;43.602;39.724;2022-10-18T07:45:03;21.83;71.29
75652;HTU21D;64248;43.602;39.724;2022-10-18T07:47:29;21.87;71.27
75652;HTU21D;64248;43.602;39.724;2022-10-18T07:49:55;21.90;71.30
75652;HTU21D;64248;43.602;39.724;2022-10-18T07:52:21;21.94;71.09
75652;HTU21D;64248;43.602;39.724;2022-10-18T07:54:47;21.99;71.03
75652;HTU21D;64248;43.602;39.724;2022-10-18T07:57:13;22.06;70.94
75652;HTU21D;64248;43.602;39.724;2022-10-18T07:59:39;22.09;70.76
75652;HTU21D;64248;43.602;39.724;2022-10-18T08:02:05;22.14;70.55
75652;HTU21D;64248;43.602;39.724;2022-10-18T08:04:31;22.22;70.42
75652;HTU21D;64248;43.602;39.724;2022-10-18T08:06:57;22.27;70.24
75652;HTU21D;64248;43.602;39.724;2022-10-18T08:09:23;22.35;70.20
75652;HTU21D;64248;43.602;39.724;2022-10-18T08:11:49;22.43;70.21
75652;HTU21D;64248;43.602;39.724;2022-10-18T08:14:15;22.53;70.04
75652;HTU21D;64248;43.602;39.724;2022-10-18T08:16:41;22.65;69.90
75652;HTU21D;64248;43.602;39.724;2022-10-18T08:19:06;22.79;69.85
75652;HTU21D;64248;43.602;39.724;2022-10-18T08:21:32;22.91;69.65
75652;HTU21D;64248;43.602;39.724;2022-10-18T08:23:58;23.03;69.58
75652;HTU21D;64248;43.602;39.724;2022-10-18T08:26:24;23.18;69.45
75652;HTU21D;64248;43.602;39.724;2022-10-18T08:28:51;23.31;69.44
75652;HTU21D;64248;43.602;39.724;2022-10-18T08:31:18;23.47;69.50
75652;HTU21D;64248;43.602;39.724;2022-10-18T08:33:45;23.68;69.36
75652;HTU21D;64248;43.602;39.724;2022-10-18T08:36:13;23.91;68.88
75652;HTU21D;64248;43.602;39.724;2022-10-18T08:38:41;24.12;68.62
75652;HTU21D;64248;43.602;39.724;2022-10-18T08:44:14;24.61;67.77
75652;HTU21D;64248;43.602;39.724;2022-10-18T08:46:51;24.84;67.39
75652;HTU21D;64248;43.602;39.724;2022-10-18T08:49:37;25.09;67.07
75652;HTU21D;64248;43.602;39.724;2022-10-18T08:52:57;25.35;66.49
75652;HTU21D;64248;43.602;39.724;2022-10-18T08:57:35;25.83;64.94
75652;HTU21D;64248;43.602;39.724;2022-10-18T09:00:13;26.07;64.04
75652;HTU21D;64248;43.602;39.724;2022-10-18T09:03:02;26.33;63.74
75652;HTU21D;64248;43.602;39.724;2022-10-18T09:11:20;27.02;61.53
75652;HTU21D;64248;43.602;39.724;2022-10-18T09:22:17;27.71;58.92
75652;HTU21D;64248;43.602;39.724;2022-10-18T09:30:53;28.13;56.59
75652;HTU21D;64248;43.602;39.724;2022-10-18T09:36:04;28.46;55.13
75652;HTU21D;64248;43.602;39.724;2022-10-18T09:38:45;28.55;54.92
75652;HTU21D;64248;43.602;39.724;2022-10-18T09:41:19;28.68;53.93
75652;HTU21D;64248;43.602;39.724;2022-10-18T09:44:21;28.79;53.75
75652;HTU21D;64248;43.602;39.724;2022-10-18T09:46:57;28.98;53.11
75652;HTU21D;64248;43.602;39.724;2022-10-18T09:49:30;29.01;52.73
75652;HTU21D;64248;43.602;39.724;2022-10-18T09:52:00;29.12;52.56
75652;HTU21D;64248;43.602;39.724;2022-10-18T09:54:35;29.30;52.36
75652;HTU21D;64248;43.602;39.724;2022-10-18T09:57:07;29.54;51.59
75652;HTU21D;64248;43.602;39.724;2022-10-18T10:02:04;29.95;50.40
75652;HTU21D;64248;43.602;39.724;2022-10-18T10:04:30;30.05;50.01
75652;HTU21D;64248;43.602;39.724;2022-10-18T10:06:59;30.11;49.81
75652;HTU21D;64248;43.602;39.724;2022-10-18T10:09:28;30.23;49.44
75652;HTU21D;64248;43.602;39.724;2022-10-18T10:11:56;30.22;48.86
75652;HTU21D;64248;43.602;39.724;2022-10-18T10:14:27;30.08;49.28
75652;HTU21D;64248;43.602;39.724;2022-10-18T10:16:57;29.89;49.34
75652;HTU21D;64248;43.602;39.724;2022-10-18T10:19:28;29.67;49.50
75652;HTU21D;64248;43.602;39.724;2022-10-18T10:22:10;29.19;50.31
75652;HTU21D;64248;43.602;39.724;2022-10-18T10:24:47;28.48;51.94
75652;HTU21D;64248;43.602;39.724;2022-10-18T10:27:25;27.89;53.26
75652;HTU21D;64248;43.602;39.724;2022-10-18T10:29:54;27.40;54.20
75652;HTU21D;64248;43.602;39.724;2022-10-18T10:32:24;26.95;55.07
75652;HTU21D;64248;43.602;39.724;2022-10-18T10:34:51;26.56;55.98
75652;HTU21D;64248;43.602;39.724;2022-10-18T10:37:32;26.28;56.83
75652;HTU21D;64248;43.602;39.724;2022-10-18T10:42:37;25.84;57.99
75652;HTU21D;64248;43.602;39.724;2022-10-18T10:45:13;25.67;58.41
75652;HTU21D;64248;43.602;39.724;2022-10-18T10:47:39;25.56;58.67
75652;HTU21D;64248;43.602;39.724;2022-10-18T10:50:10;25.47;59.09
75652;HTU21D;64248;43.602;39.724;2022-10-18T10:52:38;25.37;59.34
75652;HTU21D;64248;43.602;39.724;2022-10-18T10:55:18;25.30;59.45
75652;HTU21D;64248;43.602;39.724;2022-10-18T10:57:46;25.22;59.74
75652;HTU21D;64248;43.602;39.724;2022-10-18T11:03:25;25.12;60.06
75652;HTU21D;64248;43.602;39.724;2022-10-18T11:05:53;25.06;60.05
75652;HTU21D;64248;43.602;39.724;2022-10-18T11:08:29;25.00;60.25
75652;HTU21D;64248;43.602;39.724;2022-10-18T11:16:35;24.85;60.52
75652;HTU21D;64248;43.602;39.724;2022-10-18T11:19:15;24.78;60.63
75652;HTU21D;64248;43.602;39.724;2022-10-18T11:21:45;24.74;60.91
75652;HTU21D;64248;43.602;39.724;2022-10-18T11:24:14;24.70;61.18
75652;HTU21D;64248;43.602;39.724;2022-10-18T11:26:48;24.66;61.29
75652;HTU21D;64248;43.602;39.724;2022-10-18T11:32:33;24.59;61.59
75652;HTU21D;64248;43.602;39.724;2022-10-18T11:40:49;24.43;61.92
75652;HTU21D;64248;43.602;39.724;2022-10-18T11:43:48;24.38;62.09
75652;HTU21D;64248;43.602;39.724;2022-10-18T11:46:44;24.32;62.20
75652;HTU21D;64248;43.602;39.724;2022-10-18T11:49:33;24.29;62.14
75652;HTU21D;64248;43.602;39.724;2022-10-18T12:03:23;24.28;62.38
75652;HTU21D;64248;43.602;39.724;2022-10-18T12:05:53;24.26;62.49
75652;HTU21D;64248;43.602;39.724;2022-10-18T12:10:59;24.18;62.66
75652;HTU21D;64248;43.602;39.724;2022-10-18T12:13:38;24.15;62.81
75652;HTU21D;64248;43.602;39.724;2022-10-18T12:16:07;24.11;63.11
75652;HTU21D;64248;43.602;39.724;2022-10-18T12:18:35;24.06;63.34
75652;HTU21D;64248;43.602;39.724;2022-10-18T12:21:10;24.04;63.51
75652;HTU21D;64248;43.602;39.724;2022-10-18T12:23:58;24.02;63.42
75652;HTU21D;64248;43.602;39.724;2022-10-18T12:26:26;23.99;63.80
75652;HTU21D;64248;43.602;39.724;2022-10-18T12:31:41;24.82;63.06
75652;HTU21D;64248;43.602;39.724;2022-10-18T12:42:29;24.57;62.61
75652;HTU21D;64248;43.602;39.724;2022-10-18T12:47:43;24.26;63.24
75652;HTU21D;64248;43.602;39.724;2022-10-18T12:50:31;24.14;63.43
75652;HTU21D;64248;43.602;39.724;2022-10-18T12:55:36;23.90;64.20
75652;HTU21D;64248;43.602;39.724;2022-10-18T13:11:33;23.55;65.30
75652;HTU21D;64248;43.602;39.724;2022-10-18T13:24:57;24.68;63.93
75652;HTU21D;64248;43.602;39.724;2022-10-18T13:31:24;24.43;63.86
75652;HTU21D;64248;43.602;39.724;2022-10-18T13:33:29;24.32;64.18
75652;HTU21D;64248;43.602;39.724;2022-10-18T13:35:59;24.21;64.28
75652;HTU21D;64248;43.602;39.724;2022-10-18T13:41:02;23.94;64.46
75652;HTU21D;64248;43.602;39.724;2022-10-18T13:57:38;23.40;66.14
75652;HTU21D;64248;43.602;39.724;2022-10-18T14:11:29;23.09;66.91
75652;HTU21D;64248;43.602;39.724;2022-10-18T14:14:23;23.02;66.88
75652;HTU21D;64248;43.602;39.724;2022-10-18T14:17:01;22.94;67.15
75652;HTU21D;64248;43.602;39.724;2022-10-18T14:19:38;22.90;67.24
75652;HTU21D;64248;43.602;39.724;2022-10-18T14:22:22;22.82;67.27
75652;HTU21D;64248;43.602;39.724;2022-10-18T14:24:52;22.78;67.62
75652;HTU21D;64248;43.602;39.724;2022-10-18T14:27:23;22.73;67.72
75652;HTU21D;64248;43.602;39.724;2022-10-18T14:30:26;22.69;67.75
75652;HTU21D;64248;43.602;39.724;2022-10-18T14:32:51;22.65;67.91
75652;HTU21D;64248;43.602;39.724;2022-10-18T14:35:26;22.65;68.05
75652;HTU21D;64248;43.602;39.724;2022-10-18T14:37:53;22.61;68.20
75652;HTU21D;64248;43.602;39.724;2022-10-18T14:42:54;22.55;68.46
75652;HTU21D;64248;43.602;39.724;2022-10-18T14:45:21;22.52;68.54
75652;HTU21D;64248;43.602;39.724;2022-10-18T14:47:48;22.51;68.61
75652;HTU21D;64248;43.602;39.724;2022-10-18T14:50:25;22.49;68.60
75652;HTU21D;64248;43.602;39.724;2022-10-18T14:52:55;22.46;68.81
75652;HTU21D;64248;43.602;39.724;2022-10-18T14:55:24;22.42;68.94
75652;HTU21D;64248;43.602;39.724;2022-10-18T14:57:51;22.41;69.02
75652;HTU21D;64248;43.602;39.724;2022-10-18T15:00:36;22.40;69.16
75652;HTU21D;64248;43.602;39.724;2022-10-18T15:03:03;22.37;69.25
75652;HTU21D;64248;43.602;39.724;2022-10-18T15:05:30;22.37;69.26
75652;HTU21D;64248;43.602;39.724;2022-10-18T15:07:57;22.34;69.32
75652;HTU21D;64248;43.602;39.724;2022-10-18T15:10:27;22.33;69.33
75652;HTU21D;64248;43.602;39.724;2022-10-18T15:12:56;22.29;69.39
75652;HTU21D;64248;43.602;39.724;2022-10-18T15:15:28;22.25;69.46
75652;HTU21D;64248;43.602;39.724;2022-10-18T15:17:56;22.23;69.65
75652;HTU21D;64248;43.602;39.724;2022-10-18T15:20:26;22.21;69.71
75652;HTU21D;64248;43.602;39.724;2022-10-18T15:22:53;22.19;69.79
75652;HTU21D;64248;43.602;39.724;2022-10-18T15:25:26;22.17;69.85
75652;HTU21D;64248;43.602;39.724;2022-10-18T15:27:58;22.16;69.96
75652;HTU21D;64248;43.602;39.724;2022-10-18T15:33:02;22.11;69.90
75652;HTU21D;64248;43.602;39.724;2022-10-18T15:35:33;22.09;70.02
75652;HTU21D;64248;43.602;39.724;2022-10-18T15:38:46;22.09;70.11
75652;HTU21D;64248;43.602;39.724;2022-10-18T15:40:47;22.08;70.10
75652;HTU21D;64248;43.602;39.724;2022-10-18T15:43:36;22.07;70.07
75652;HTU21D;64248;43.602;39.724;2022-10-18T15:46:05;22.06;69.80
75652;HTU21D;64248;43.602;39.724;2022-10-18T15:48:39;22.07;70.13
75652;HTU21D;64248;43.602;39.724;2022-10-18T15:51:45;22.08;70.27
75652;HTU21D;64248;43.602;39.724;2022-10-18T15:54:17;22.10;70.32
75652;HTU21D;64248;43.602;39.724;2022-10-18T15:56:44;22.12;70.34
75652;HTU21D;64248;43.602;39.724;2022-10-18T15:59:27;22.16;70.19
75652;HTU21D;64248;43.602;39.724;2022-10-18T16:01:55;22.16;70.14
75652;HTU21D;64248;43.602;39.724;2022-10-18T16:04:28;22.18;70.03
75652;HTU21D;64248;43.602;39.724;2022-10-18T16:06:54;22.18;70.01
75652;HTU21D;64248;43.602;39.724;2022-10-18T16:09:23;22.18;69.96
75652;HTU21D;64248;43.602;39.724;2022-10-18T16:11:49;22.18;69.87
75652;HTU21D;64248;43.602;39.724;2022-10-18T16:14:17;22.14;69.79
75652;HTU21D;64248;43.602;39.724;2022-10-18T16:16:44;22.12;69.85
75652;HTU21D;64248;43.602;39.724;2022-10-18T16:19:14;22.12;69.91
75652;HTU21D;64248;43.602;39.724;2022-10-18T16:21:43;22.10;70.07
75652;HTU21D;64248;43.602;39.724;2022-10-18T16:24:09;22.09;70.15
75652;HTU21D;64248;43.602;39.724;2022-10-18T16:26:36;22.08;70.18
75652;HTU21D;64248;43.602;39.724;2022-10-18T16:29:03;22.06;70.13
75652;HTU21D;64248;43.602;39.724;2022-10-18T16:31:32;22.04;70.10
75652;HTU21D;64248;43.602;39.724;2022-10-18T16:33:58;22.01;70.03
75652;HTU21D;64248;43.602;39.724;2022-10-18T16:36:29;21.97;70.10
75652;HTU21D;64248;43.602;39.724;2022-10-18T16:38:57;21.96;70.19
75652;HTU21D;64248;43.602;39.724;2022-10-18T16:41:25;21.96;70.21
75652;HTU21D;64248;43.602;39.724;2022-10-18T16:43:51;21.97;70.38
75652;HTU21D;64248;43.602;39.724;2022-10-18T16:46:21;21.96;70.12
75652;HTU21D;64248;43.602;39.724;2022-10-18T16:48:49;21.93;70.00
75652;HTU21D;64248;43.602;39.724;2022-10-18T16:51:15;21.92;69.90
75652;HTU21D;64248;43.602;39.724;2022-10-18T16:53:42;21.90;69.81
75652;HTU21D;64248;43.602;39.724;2022-10-18T16:56:27;21.87;69.70
75652;HTU21D;64248;43.602;39.724;2022-10-18T16:58:55;21.83;69.72
75652;HTU21D;64248;43.602;39.724;2022-10-18T17:01:23;21.78;69.81
75652;HTU21D;64248;43.602;39.724;2022-10-18T17:03:50;21.75;69.93
75652;HTU21D;64248;43.602;39.724;2022-10-18T17:06:27;21.70;70.09
75652;HTU21D;64248;43.602;39.724;2022-10-18T17:08:55;21.70;70.17
75652;HTU21D;64248;43.602;39.724;2022-10-18T17:11:23;21.68;70.19
75652;HTU21D;64248;43.602;39.724;2022-10-18T17:13:49;21.67;70.26
75652;HTU21D;64248;43.602;39.724;2022-10-18T17:16:25;21.65;70.25
75652;HTU21D;64248;43.602;39.724;2022-10-18T17:18:54;21.63;70.38
75652;HTU21D;64248;43.602;39.724;2022-10-18T17:21:21;21.62;70.40
75652;HTU21D;64248;43.602;39.724;2022-10-18T17:23:47;21.62;70.44
75652;HTU21D;64248;43.602;39.724;2022-10-18T17:26:15;21.61;70.42
75652;HTU21D;64248;43.602;39.724;2022-10-18T17:28:42;21.59;70.51
75652;HTU21D;64248;43.602;39.724;2022-10-18T17:31:08;21.55;70.52
75652;HTU21D;64248;43.602;39.724;2022-10-18T17:33:34;21.54;70.50
75652;HTU21D;64248;43.602;39.724;2022-10-18T17:36:00;21.54;70.54
75652;HTU21D;64248;43.602;39.724;2022-10-18T17:38:26;21.51;70.55
75652;HTU21D;64248;43.602;39.724;2022-10-18T17:40:52;21.50;70.60
75652;HTU21D;64248;43.602;39.724;2022-10-18T17:43:19;21.51;70.63
75652;HTU21D;64248;43.602;39.724;2022-10-18T17:45:49;21.49;70.71
75652;HTU21D;64248;43.602;39.724;2022-10-18T17:48:18;21.47;70.76
75652;HTU21D;64248;43.602;39.724;2022-10-18T17:50:44;21.48;70.75
75652;HTU21D;64248;43.602;39.724;2022-10-18T17:53:10;21.47;70.78
75652;HTU21D;64248;43.602;39.724;2022-10-18T17:55:38;21.45;70.79
75652;HTU21D;64248;43.602;39.724;2022-10-18T17:58:04;21.46;70.75
75652;HTU21D;64248;43.602;39.724;2022-10-18T18:00:30;21.44;70.77
75652;HTU21D;64248;43.602;39.724;2022-10-18T18:02:57;21.44;70.90
75652;HTU21D;64248;43.602;39.724;2022-10-18T18:05:23;21.44;70.93
75652;HTU21D;64248;43.602;39.724;2022-10-18T18:07:49;21.46;70.82
75652;HTU21D;64248;43.602;39.724;2022-10-18T18:10:15;21.47;70.88